sensor_id;sensor_type;location;lat;lon;timestamp;pressure;altitude;pressure_sealevel;temperature;humidity
38267;BME280;24063;51.794;19.578;2022-12-07T00:00:07;97859.89;;;0.30;100.00
38267;BME280;24063;51.794;19.578;2022-12-07T00:01:32;97854.91;;;0.29;100.00
38267;BME280;24063;51.794;19.578;2022-12-07T00:02:34;97856.56;;;0.29;100.00
38267;BME280;24063;51.794;19.578;2022-12-07T00:03:37;97856.98;;;0.29;100.00
38267;BME280;24063;51.794;19.578;2022-12-07T00:04:39;97854.12;;;0.27;100.00
38267;BME280;24063;51.794;19.578;2022-12-07T00:05:41;97853.98;;;0.26;100.00
38267;BME280;24063;51.794;19.578;2022-12-07T00:06:46;97851.00;;;0.26;100.00
38267;BME280;24063;51.794;19.578;2022-12-07T00:07:49;97848.65;;;0.25;100.00
38267;BME280;24063;51.794;19.578;2022-12-07T00:08:50;97849.38;;;0.25;100.00
38267;BME280;24063;51.794;19.578;2022-12-07T00:09:52;97846.86;;;0.24;100.00
38267;BME280;24063;51.794;19.578;2022-12-07T00:10:54;97845.91;;;0.24;100.00
38267;BME280;24063;51.794;19.578;2022-12-07T00:11:56;97848.85;;;0.25;100.00
38267;BME280;24063;51.794;19.578;2022-12-07T00:12:58;97846.68;;;0.25;100.00
38267;BME280;24063;51.794;19.578;2022-12-07T00:14:04;97847.00;;;0.25;100.00
38267;BME280;24063;51.794;19.578;2022-12-07T00:15:07;97841.80;;;0.26;100.00
38267;BME280;24063;51.794;19.578;2022-12-07T00:16:14;97848.13;;;0.27;100.00
38267;BME280;24063;51.794;19.578;2022-12-07T00:17:17;97848.34;;;0.28;100.00
38267;BME280;24063;51.794;19.578;2022-12-07T00:18:18;97845.92;;;0.29;100.00
38267;BME280;24063;51.794;19.578;2022-12-07T00:19:20;97840.81;;;0.26;100.00
38267;BME280;24063;51.794;19.578;2022-12-07T00:20:22;97845.48;;;0.28;100.00
38267;BME280;24063;51.794;19.578;2022-12-07T00:21:30;97846.91;;;0.28;100.00
38267;BME280;24063;51.794;19.578;2022-12-07T00:22:32;97844.36;;;0.26;100.00
38267;BME280;24063;51.794;19.578;2022-12-07T00:23:34;97844.86;;;0.27;100.00
38267;BME280;24063;51.794;19.578;2022-12-07T00:24:36;97844.02;;;0.27;100.00
38267;BME280;24063;51.794;19.578;2022-12-07T00:25:38;97842.80;;;0.27;100.00
38267;BME280;24063;51.794;19.578;2022-12-07T00:26:41;97845.91;;;0.28;100.00
38267;BME280;24063;51.794;19.578;2022-12-07T00:27:43;97845.11;;;0.28;100.00
38267;BME280;24063;51.794;19.578;2022-12-07T00:28:54;97846.88;;;0.31;100.00
38267;BME280;24063;51.794;19.578;2022-12-07T00:29:56;97845.84;;;0.32;100.00
38267;BME280;24063;51.794;19.578;2022-12-07T00:31:08;97847.61;;;0.32;100.00
38267;BME280;24063;51.794;19.578;2022-12-07T00:32:11;97847.73;;;0.33;100.00
38267;BME280;24063;51.794;19.578;2022-12-07T00:33:13;97851.19;;;0.33;100.00
38267;BME280;24063;51.794;19.578;2022-12-07T00:34:18;97852.38;;;0.33;100.00
38267;BME280;24063;51.794;19.578;2022-12-07T00:35:20;97854.67;;;0.34;100.00
38267;BME280;24063;51.794;19.578;2022-12-07T00:36:23;97857.78;;;0.35;100.00
38267;BME280;24063;51.794;19.578;2022-12-07T00:37:28;97855.77;;;0.35;100.00
38267;BME280;24063;51.794;19.578;2022-12-07T00:38:32;97853.38;;;0.36;100.00
38267;BME280;24063;51.794;19.578;2022-12-07T00:39:34;97855.53;;;0.34;100.00
38267;BME280;24063;51.794;19.578;2022-12-07T00:40:36;97850.75;;;0.34;100.00
38267;BME280;24063;51.794;19.578;2022-12-07T00:41:37;97850.82;;;0.33;100.00
38267;BME280;24063;51.794;19.578;2022-12-07T00:42:39;97848.58;;;0.32;100.00
38267;BME280;24063;51.794;19.578;2022-12-07T00:43:43;97853.20;;;0.32;100.00
38267;BME280;24063;51.794;19.578;2022-12-07T00:44:45;97849.40;;;0.32;100.00
38267;BME280;24063;51.794;19.578;2022-12-07T00:45:47;97845.61;;;0.31;100.00
38267;BME280;24063;51.794;19.578;2022-12-07T00:46:48;97847.23;;;0.31;100.00
38267;BME280;24063;51.794;19.578;2022-12-07T00:47:51;97850.23;;;0.31;100.00
38267;BME280;24063;51.794;19.578;2022-12-07T00:48:53;97850.80;;;0.32;100.00
38267;BME280;24063;51.794;19.578;2022-12-07T00:49:55;97849.36;;;0.32;100.00
38267;BME280;24063;51.794;19.578;2022-12-07T00:50:57;97850.51;;;0.31;100.00
38267;BME280;24063;51.794;19.578;2022-12-07T00:52:02;97851.61;;;0.31;100.00
38267;BME280;24063;51.794;19.578;2022-12-07T00:53:03;97848.96;;;0.31;100.00
38267;BME280;24063;51.794;19.578;2022-12-07T00:54:05;97849.31;;;0.32;100.00
38267;BME280;24063;51.794;19.578;2022-12-07T00:55:07;97850.63;;;0.34;100.00
38267;BME280;24063;51.794;19.578;2022-12-07T00:56:28;97850.91;;;0.35;100.00
38267;BME280;24063;51.794;19.578;2022-12-07T00:57:31;97850.41;;;0.36;100.00
38267;BME280;24063;51.794;19.578;2022-12-07T00:58:32;97849.33;;;0.36;100.00
38267;BME280;24063;51.794;19.578;2022-12-07T00:59:35;97847.34;;;0.35;100.00
38267;BME280;24063;51.794;19.578;2022-12-07T01:00:38;97848.92;;;0.36;100.00
38267;BME280;24063;51.794;19.578;2022-12-07T01:01:40;97845.81;;;0.36;100.00
38267;BME280;24063;51.794;19.578;2022-12-07T01:02:42;97841.09;;;0.35;100.00
38267;BME280;24063;51.794;19.578;2022-12-07T01:03:44;97846.52;;;0.36;100.00
38267;BME280;24063;51.794;19.578;2022-12-07T01:04:46;97843.51;;;0.34;100.00
38267;BME280;24063;51.794;19.578;2022-12-07T01:05:50;97843.94;;;0.33;100.00
38267;BME280;24063;51.794;19.578;2022-12-07T01:06:52;97844.25;;;0.32;100.00
38267;BME280;24063;51.794;19.578;2022-12-07T01:07:54;97844.54;;;0.31;100.00
38267;BME280;24063;51.794;19.578;2022-12-07T01:08:56;97842.41;;;0.31;100.00
38267;BME280;24063;51.794;19.578;2022-12-07T01:09:58;97842.75;;;0.31;100.00
38267;BME280;24063;51.794;19.578;2022-12-07T01:11:04;97844.45;;;0.32;100.00
38267;BME280;24063;51.794;19.578;2022-12-07T01:12:06;97842.28;;;0.32;100.00
38267;BME280;24063;51.794;19.578;2022-12-07T01:13:08;97842.84;;;0.33;100.00
38267;BME280;24063;51.794;19.578;2022-12-07T01:14:10;97838.71;;;0.33;100.00
38267;BME280;24063;51.794;19.578;2022-12-07T01:15:12;97836.98;;;0.33;100.00
38267;BME280;24063;51.794;19.578;2022-12-07T01:16:15;97836.92;;;0.34;100.00
38267;BME280;24063;51.794;19.578;2022-12-07T01:17:17;97836.42;;;0.36;100.00
38267;BME280;24063;51.794;19.578;2022-12-07T01:18:19;97832.11;;;0.36;100.00
38267;BME280;24063;51.794;19.578;2022-12-07T01:19:21;97831.30;;;0.37;100.00
38267;BME280;24063;51.794;19.578;2022-12-07T01:20:23;97831.09;;;0.37;100.00
38267;BME280;24063;51.794;19.578;2022-12-07T01:21:30;97828.67;;;0.36;100.00
38267;BME280;24063;51.794;19.578;2022-12-07T01:22:37;97828.96;;;0.37;100.00
38267;BME280;24063;51.794;19.578;2022-12-07T01:23:41;97826.52;;;0.37;100.00
38267;BME280;24063;51.794;19.578;2022-12-07T01:24:43;97828.23;;;0.36;100.00
38267;BME280;24063;51.794;19.578;2022-12-07T01:25:44;97827.33;;;0.36;100.00
38267;BME280;24063;51.794;19.578;2022-12-07T01:26:49;97828.56;;;0.36;100.00
38267;BME280;24063;51.794;19.578;2022-12-07T01:27:51;97826.27;;;0.36;100.00
38267;BME280;24063;51.794;19.578;2022-12-07T01:28:53;97825.54;;;0.35;100.00
38267;BME280;24063;51.794;19.578;2022-12-07T01:29:56;97826.18;;;0.34;100.00
38267;BME280;24063;51.794;19.578;2022-12-07T01:31:04;97820.35;;;0.33;100.00
38267;BME280;24063;51.794;19.578;2022-12-07T01:32:06;97824.36;;;0.32;100.00
38267;BME280;24063;51.794;19.578;2022-12-07T01:33:08;97821.20;;;0.31;100.00
38267;BME280;24063;51.794;19.578;2022-12-07T01:34:10;97822.17;;;0.29;100.00
38267;BME280;24063;51.794;19.578;2022-12-07T01:35:12;97822.56;;;0.28;100.00
38267;BME280;24063;51.794;19.578;2022-12-07T01:36:22;97824.84;;;0.28;100.00
38267;BME280;24063;51.794;19.578;2022-12-07T01:37:25;97826.04;;;0.27;100.00
38267;BME280;24063;51.794;19.578;2022-12-07T01:38:26;97823.61;;;0.28;100.00
38267;BME280;24063;51.794;19.578;2022-12-07T01:39:28;97821.38;;;0.27;100.00
38267;BME280;24063;51.794;19.578;2022-12-07T01:40:30;97817.59;;;0.27;100.00
38267;BME280;24063;51.794;19.578;2022-12-07T01:41:36;97819.15;;;0.26;100.00
38267;BME280;24063;51.794;19.578;2022-12-07T01:42:40;97816.96;;;0.25;100.00
38267;BME280;24063;51.794;19.578;2022-12-07T01:46:19;97814.86;;;0.20;100.00
38267;BME280;24063;51.794;19.578;2022-12-07T01:47:21;97813.80;;;0.20;100.00
38267;BME280;24063;51.794;19.578;2022-12-07T01:48:49;97810.45;;;0.20;100.00
38267;BME280;24063;51.794;19.578;2022-12-07T01:49:50;97806.98;;;0.19;100.00
38267;BME280;24063;51.794;19.578;2022-12-07T01:50:56;97807.77;;;0.19;100.00
38267;BME280;24063;51.794;19.578;2022-12-07T01:52:28;97804.58;;;0.18;100.00
38267;BME280;24063;51.794;19.578;2022-12-07T01:53:36;97804.92;;;0.20;100.00
38267;BME280;24063;51.794;19.578;2022-12-07T01:54:41;97806.06;;;0.21;100.00
38267;BME280;24063;51.794;19.578;2022-12-07T01:55:47;97802.35;;;0.21;100.00
38267;BME280;24063;51.794;19.578;2022-12-07T01:56:55;97803.75;;;0.20;100.00
38267;BME280;24063;51.794;19.578;2022-12-07T01:57:58;97802.31;;;0.17;100.00
38267;BME280;24063;51.794;19.578;2022-12-07T01:59:00;97800.13;;;0.15;100.00
38267;BME280;24063;51.794;19.578;2022-12-07T02:00:04;97802.97;;;0.14;100.00
38267;BME280;24063;51.794;19.578;2022-12-07T02:01:15;97803.16;;;0.13;100.00
38267;BME280;24063;51.794;19.578;2022-12-07T02:02:23;97807.71;;;0.12;100.00
38267;BME280;24063;51.794;19.578;2022-12-07T02:03:34;97803.64;;;0.11;100.00
38267;BME280;24063;51.794;19.578;2022-12-07T02:04:37;97803.28;;;0.09;100.00
38267;BME280;24063;51.794;19.578;2022-12-07T02:05:41;97799.16;;;0.10;100.00
38267;BME280;24063;51.794;19.578;2022-12-07T02:06:44;97796.31;;;0.11;100.00
38267;BME280;24063;51.794;19.578;2022-12-07T02:07:48;97797.30;;;0.13;100.00
38267;BME280;24063;51.794;19.578;2022-12-07T02:08:52;97794.40;;;0.13;100.00
38267;BME280;24063;51.794;19.578;2022-12-07T02:09:55;97796.51;;;0.14;100.00
38267;BME280;24063;51.794;19.578;2022-12-07T02:10:56;97791.48;;;0.15;100.00
38267;BME280;24063;51.794;19.578;2022-12-07T02:11:59;97790.28;;;0.15;100.00
38267;BME280;24063;51.794;19.578;2022-12-07T02:13:04;97790.98;;;0.15;100.00
38267;BME280;24063;51.794;19.578;2022-12-07T02:14:07;97789.77;;;0.14;100.00
38267;BME280;24063;51.794;19.578;2022-12-07T02:15:09;97788.86;;;0.15;100.00
38267;BME280;24063;51.794;19.578;2022-12-07T02:16:32;97786.64;;;0.15;100.00
38267;BME280;24063;51.794;19.578;2022-12-07T02:18:15;97786.33;;;0.15;100.00
38267;BME280;24063;51.794;19.578;2022-12-07T02:21:46;97782.27;;;0.15;100.00
38267;BME280;24063;51.794;19.578;2022-12-07T02:23:00;97785.23;;;0.14;100.00
38267;BME280;24063;51.794;19.578;2022-12-07T02:24:15;97785.83;;;0.12;100.00
38267;BME280;24063;51.794;19.578;2022-12-07T02:27:22;97784.09;;;0.11;100.00
38267;BME280;24063;51.794;19.578;2022-12-07T02:28:37;97782.51;;;0.11;100.00
38267;BME280;24063;51.794;19.578;2022-12-07T02:30:09;97780.30;;;0.10;100.00
38267;BME280;24063;51.794;19.578;2022-12-07T02:31:18;97776.38;;;0.11;100.00
38267;BME280;24063;51.794;19.578;2022-12-07T02:34:05;97780.39;;;0.12;100.00
38267;BME280;24063;51.794;19.578;2022-12-07T02:36:26;97772.38;;;0.12;100.00
38267;BME280;24063;51.794;19.578;2022-12-07T02:37:42;97775.84;;;0.13;100.00
38267;BME280;24063;51.794;19.578;2022-12-07T02:38:55;97776.06;;;0.12;100.00
38267;BME280;24063;51.794;19.578;2022-12-07T02:40:08;97773.41;;;0.11;100.00
38267;BME280;24063;51.794;19.578;2022-12-07T02:42:41;97766.09;;;0.09;100.00
38267;BME280;24063;51.794;19.578;2022-12-07T02:43:56;97766.14;;;0.09;100.00
38267;BME280;24063;51.794;19.578;2022-12-07T02:45:01;97767.42;;;0.10;100.00
38267;BME280;24063;51.794;19.578;2022-12-07T02:46:25;97765.20;;;0.10;100.00
38267;BME280;24063;51.794;19.578;2022-12-07T02:47:31;97768.52;;;0.11;100.00
38267;BME280;24063;51.794;19.578;2022-12-07T02:48:38;97769.05;;;0.11;100.00
38267;BME280;24063;51.794;19.578;2022-12-07T02:49:43;97764.88;;;0.10;100.00
38267;BME280;24063;51.794;19.578;2022-12-07T02:50:49;97764.54;;;0.09;100.00
38267;BME280;24063;51.794;19.578;2022-12-07T02:51:52;97764.81;;;0.09;100.00
38267;BME280;24063;51.794;19.578;2022-12-07T02:52:54;97766.13;;;0.09;100.00
38267;BME280;24063;51.794;19.578;2022-12-07T02:53:56;97762.41;;;0.09;100.00
38267;BME280;24063;51.794;19.578;2022-12-07T02:54:58;97765.42;;;0.10;100.00
38267;BME280;24063;51.794;19.578;2022-12-07T02:56:08;97761.96;;;0.10;100.00
38267;BME280;24063;51.794;19.578;2022-12-07T03:00:10;97764.69;;;0.13;100.00
38267;BME280;24063;51.794;19.578;2022-12-07T03:01:31;97763.33;;;0.13;100.00
38267;BME280;24063;51.794;19.578;2022-12-07T03:04:02;97762.58;;;0.14;100.00
38267;BME280;24063;51.794;19.578;2022-12-07T03:06:43;97760.90;;;0.12;100.00
38267;BME280;24063;51.794;19.578;2022-12-07T03:09:20;97759.00;;;0.13;100.00
38267;BME280;24063;51.794;19.578;2022-12-07T03:10:53;97762.16;;;0.14;100.00
38267;BME280;24063;51.794;19.578;2022-12-07T03:12:12;97760.61;;;0.15;100.00
38267;BME280;24063;51.794;19.578;2022-12-07T03:14:55;97756.46;;;0.16;100.00
38267;BME280;24063;51.794;19.578;2022-12-07T03:16:18;97759.48;;;0.17;100.00
38267;BME280;24063;51.794;19.578;2022-12-07T03:17:29;97758.55;;;0.18;100.00
38267;BME280;24063;51.794;19.578;2022-12-07T03:18:37;97759.77;;;0.20;100.00
38267;BME280;24063;51.794;19.578;2022-12-07T03:19:43;97762.31;;;0.21;100.00
38267;BME280;24063;51.794;19.578;2022-12-07T03:20:51;97761.39;;;0.20;100.00
38267;BME280;24063;51.794;19.578;2022-12-07T03:22:00;97760.35;;;0.18;100.00
38267;BME280;24063;51.794;19.578;2022-12-07T03:23:07;97756.29;;;0.15;100.00
38267;BME280;24063;51.794;19.578;2022-12-07T03:24:19;97759.35;;;0.14;100.00
38267;BME280;24063;51.794;19.578;2022-12-07T03:25:22;97756.96;;;0.12;100.00
38267;BME280;24063;51.794;19.578;2022-12-07T03:26:31;97751.58;;;0.12;100.00
38267;BME280;24063;51.794;19.578;2022-12-07T03:27:40;97755.81;;;0.11;100.00
38267;BME280;24063;51.794;19.578;2022-12-07T03:28:51;97750.91;;;0.10;100.00
38267;BME280;24063;51.794;19.578;2022-12-07T03:29:59;97750.50;;;0.13;100.00
38267;BME280;24063;51.794;19.578;2022-12-07T03:31:53;97746.73;;;0.13;100.00
38267;BME280;24063;51.794;19.578;2022-12-07T03:34:01;97744.52;;;0.14;100.00
38267;BME280;24063;51.794;19.578;2022-12-07T03:35:25;97744.98;;;0.13;100.00
38267;BME280;24063;51.794;19.578;2022-12-07T03:37:56;97743.54;;;0.13;100.00
38267;BME280;24063;51.794;19.578;2022-12-07T03:39:18;97746.09;;;0.15;100.00
38267;BME280;24063;51.794;19.578;2022-12-07T03:40:32;97745.45;;;0.17;100.00
38267;BME280;24063;51.794;19.578;2022-12-07T03:41:38;97744.89;;;0.19;100.00
38267;BME280;24063;51.794;19.578;2022-12-07T03:42:46;97743.73;;;0.19;100.00
38267;BME280;24063;51.794;19.578;2022-12-07T03:43:50;97745.52;;;0.20;100.00
38267;BME280;24063;51.794;19.578;2022-12-07T03:44:53;97743.81;;;0.20;100.00
38267;BME280;24063;51.794;19.578;2022-12-07T03:48:44;97738.73;;;0.15;100.00
38267;BME280;24063;51.794;19.578;2022-12-07T03:51:22;97732.94;;;0.14;100.00
38267;BME280;24063;51.794;19.578;2022-12-07T03:52:37;97733.04;;;0.13;100.00
38267;BME280;24063;51.794;19.578;2022-12-07T03:53:48;97736.10;;;0.13;100.00
38267;BME280;24063;51.794;19.578;2022-12-07T03:55:58;97735.14;;;0.13;100.00
38267;BME280;24063;51.794;19.578;2022-12-07T03:57:02;97737.88;;;0.12;100.00
38267;BME280;24063;51.794;19.578;2022-12-07T03:58:11;97739.55;;;0.13;100.00
38267;BME280;24063;51.794;19.578;2022-12-07T03:59:15;97736.95;;;0.13;100.00
38267;BME280;24063;51.794;19.578;2022-12-07T04:00:18;97737.65;;;0.13;100.00
38267;BME280;24063;51.794;19.578;2022-12-07T04:01:22;97735.48;;;0.14;100.00
38267;BME280;24063;51.794;19.578;2022-12-07T04:02:27;97734.39;;;0.13;100.00
38267;BME280;24063;51.794;19.578;2022-12-07T04:03:30;97737.92;;;0.12;100.00
38267;BME280;24063;51.794;19.578;2022-12-07T04:04:33;97732.02;;;0.11;100.00
38267;BME280;24063;51.794;19.578;2022-12-07T04:05:36;97734.93;;;0.09;100.00
38267;BME280;24063;51.794;19.578;2022-12-07T04:06:38;97732.58;;;0.09;100.00
38267;BME280;24063;51.794;19.578;2022-12-07T04:07:40;97732.94;;;0.07;100.00
38267;BME280;24063;51.794;19.578;2022-12-07T04:08:42;97731.76;;;0.07;100.00
38267;BME280;24063;51.794;19.578;2022-12-07T04:09:44;97734.59;;;0.06;100.00
38267;BME280;24063;51.794;19.578;2022-12-07T04:10:46;97734.80;;;0.05;100.00
38267;BME280;24063;51.794;19.578;2022-12-07T04:11:48;97732.02;;;0.05;100.00
38267;BME280;24063;51.794;19.578;2022-12-07T04:12:50;97736.07;;;0.05;100.00
38267;BME280;24063;51.794;19.578;2022-12-07T04:13:51;97736.80;;;0.05;100.00
38267;BME280;24063;51.794;19.578;2022-12-07T04:15:12;97733.79;;;0.05;100.00
38267;BME280;24063;51.794;19.578;2022-12-07T04:16:13;97735.70;;;0.05;100.00
38267;BME280;24063;51.794;19.578;2022-12-07T04:17:15;97732.56;;;0.05;100.00
38267;BME280;24063;51.794;19.578;2022-12-07T04:18:17;97730.86;;;0.06;100.00
38267;BME280;24063;51.794;19.578;2022-12-07T04:19:20;97732.75;;;0.06;100.00
38267;BME280;24063;51.794;19.578;2022-12-07T04:20:23;97732.11;;;0.07;100.00
38267;BME280;24063;51.794;19.578;2022-12-07T04:21:25;97730.48;;;0.07;100.00
38267;BME280;24063;51.794;19.578;2022-12-07T04:22:27;97731.02;;;0.07;100.00
38267;BME280;24063;51.794;19.578;2022-12-07T04:23:29;97733.89;;;0.05;100.00
38267;BME280;24063;51.794;19.578;2022-12-07T04:24:31;97728.67;;;0.05;100.00
38267;BME280;24063;51.794;19.578;2022-12-07T04:25:33;97727.23;;;0.04;100.00
38267;BME280;24063;51.794;19.578;2022-12-07T04:26:35;97731.48;;;0.03;100.00
38267;BME280;24063;51.794;19.578;2022-12-07T04:27:36;97725.88;;;0.01;100.00
38267;BME280;24063;51.794;19.578;2022-12-07T04:28:38;97725.92;;;0.01;100.00
38267;BME280;24063;51.794;19.578;2022-12-07T04:29:40;97727.45;;;-0.00;100.00
38267;BME280;24063;51.794;19.578;2022-12-07T04:30:42;97725.06;;;0.01;100.00
38267;BME280;24063;51.794;19.578;2022-12-07T04:31:45;97726.88;;;0.01;100.00
38267;BME280;24063;51.794;19.578;2022-12-07T04:32:47;97724.92;;;0.02;100.00
38267;BME280;24063;51.794;19.578;2022-12-07T04:33:48;97723.81;;;0.02;100.00
38267;BME280;24063;51.794;19.578;2022-12-07T04:34:50;97726.59;;;0.02;100.00
38267;BME280;24063;51.794;19.578;2022-12-07T04:35:56;97724.26;;;0.02;100.00
38267;BME280;24063;51.794;19.578;2022-12-07T04:36:58;97723.77;;;0.02;100.00
38267;BME280;24063;51.794;19.578;2022-12-07T04:38:00;97722.69;;;0.01;100.00
38267;BME280;24063;51.794;19.578;2022-12-07T04:39:02;97723.57;;;0.02;100.00
38267;BME280;24063;51.794;19.578;2022-12-07T04:40:07;97723.04;;;0.03;100.00
38267;BME280;24063;51.794;19.578;2022-12-07T04:41:09;97721.92;;;0.03;100.00
38267;BME280;24063;51.794;19.578;2022-12-07T04:42:11;97724.13;;;0.01;100.00
38267;BME280;24063;51.794;19.578;2022-12-07T04:43:14;97723.10;;;0.01;100.00
38267;BME280;24063;51.794;19.578;2022-12-07T04:44:16;97723.91;;;0.01;100.00
38267;BME280;24063;51.794;19.578;2022-12-07T04:45:18;97723.77;;;-0.01;100.00
38267;BME280;24063;51.794;19.578;2022-12-07T04:46:22;97723.77;;;-0.00;100.00
38267;BME280;24063;51.794;19.578;2022-12-07T04:47:24;97725.81;;;0.01;100.00
38267;BME280;24063;51.794;19.578;2022-12-07T04:48:26;97727.48;;;-0.00;100.00
38267;BME280;24063;51.794;19.578;2022-12-07T04:49:28;97724.55;;;-0.01;100.00
38267;BME280;24063;51.794;19.578;2022-12-07T04:50:30;97724.15;;;-0.02;100.00
38267;BME280;24063;51.794;19.578;2022-12-07T04:51:31;97722.81;;;-0.03;100.00
38267;BME280;24063;51.794;19.578;2022-12-07T04:52:33;97719.46;;;-0.03;100.00
38267;BME280;24063;51.794;19.578;2022-12-07T04:53:35;97721.98;;;-0.04;100.00
38267;BME280;24063;51.794;19.578;2022-12-07T04:54:37;97720.85;;;-0.05;100.00
38267;BME280;24063;51.794;19.578;2022-12-07T04:55:39;97717.95;;;-0.06;100.00
38267;BME280;24063;51.794;19.578;2022-12-07T04:56:41;97719.51;;;-0.05;100.00
38267;BME280;24063;51.794;19.578;2022-12-07T04:57:43;97718.03;;;-0.05;100.00
38267;BME280;24063;51.794;19.578;2022-12-07T04:58:46;97718.05;;;-0.04;100.00
38267;BME280;24063;51.794;19.578;2022-12-07T04:59:49;97711.11;;;-0.03;100.00
38267;BME280;24063;51.794;19.578;2022-12-07T05:00:54;97714.96;;;-0.02;100.00
38267;BME280;24063;51.794;19.578;2022-12-07T05:01:56;97712.68;;;-0.02;100.00
38267;BME280;24063;51.794;19.578;2022-12-07T05:02:58;97713.86;;;-0.02;100.00
38267;BME280;24063;51.794;19.578;2022-12-07T05:03:59;97713.31;;;0.00;100.00
38267;BME280;24063;51.794;19.578;2022-12-07T05:05:01;97709.57;;;-0.02;100.00
38267;BME280;24063;51.794;19.578;2022-12-07T05:06:04;97709.91;;;-0.03;100.00
38267;BME280;24063;51.794;19.578;2022-12-07T05:07:13;97711.14;;;-0.02;100.00
38267;BME280;24063;51.794;19.578;2022-12-07T05:08:15;97708.67;;;-0.03;100.00
38267;BME280;24063;51.794;19.578;2022-12-07T05:09:17;97708.52;;;-0.03;100.00
38267;BME280;24063;51.794;19.578;2022-12-07T05:10:19;97712.35;;;-0.02;100.00
38267;BME280;24063;51.794;19.578;2022-12-07T05:11:21;97706.25;;;-0.02;100.00
38267;BME280;24063;51.794;19.578;2022-12-07T05:12:41;97710.90;;;-0.01;100.00
38267;BME280;24063;51.794;19.578;2022-12-07T05:13:43;97708.52;;;-0.00;100.00
38267;BME280;24063;51.794;19.578;2022-12-07T05:14:45;97708.68;;;-0.00;100.00
38267;BME280;24063;51.794;19.578;2022-12-07T05:15:47;97706.61;;;-0.01;100.00
38267;BME280;24063;51.794;19.578;2022-12-07T05:16:50;97706.94;;;-0.02;100.00
38267;BME280;24063;51.794;19.578;2022-12-07T05:17:52;97704.57;;;-0.01;100.00
38267;BME280;24063;51.794;19.578;2022-12-07T05:18:54;97712.98;;;-0.01;100.00
38267;BME280;24063;51.794;19.578;2022-12-07T05:19:56;97708.13;;;-0.01;100.00
38267;BME280;24063;51.794;19.578;2022-12-07T05:20:58;97710.67;;;-0.02;100.00
38267;BME280;24063;51.794;19.578;2022-12-07T05:21:59;97711.83;;;-0.03;100.00
38267;BME280;24063;51.794;19.578;2022-12-07T05:23:01;97719.31;;;-0.00;100.00
38267;BME280;24063;51.794;19.578;2022-12-07T05:24:04;97717.19;;;-0.00;100.00
38267;BME280;24063;51.794;19.578;2022-12-07T05:25:06;97716.74;;;-0.01;100.00
38267;BME280;24063;51.794;19.578;2022-12-07T05:26:08;97714.73;;;-0.02;100.00
38267;BME280;24063;51.794;19.578;2022-12-07T05:27:10;97710.09;;;-0.01;100.00
38267;BME280;24063;51.794;19.578;2022-12-07T05:28:11;97708.64;;;-0.03;100.00
38267;BME280;24063;51.794;19.578;2022-12-07T05:29:16;97708.66;;;-0.03;100.00
38267;BME280;24063;51.794;19.578;2022-12-07T05:30:18;97708.66;;;-0.04;100.00
38267;BME280;24063;51.794;19.578;2022-12-07T05:31:20;97707.98;;;-0.05;100.00
38267;BME280;24063;51.794;19.578;2022-12-07T05:32:22;97712.14;;;-0.05;100.00
38267;BME280;24063;51.794;19.578;2022-12-07T05:33:23;97713.09;;;-0.05;100.00
38267;BME280;24063;51.794;19.578;2022-12-07T05:34:25;97718.89;;;-0.05;100.00
38267;BME280;24063;51.794;19.578;2022-12-07T05:35:27;97718.81;;;-0.05;100.00
38267;BME280;24063;51.794;19.578;2022-12-07T05:36:29;97722.86;;;-0.05;100.00
38267;BME280;24063;51.794;19.578;2022-12-07T05:37:33;97726.75;;;-0.05;100.00
38267;BME280;24063;51.794;19.578;2022-12-07T05:38:35;97728.09;;;-0.04;100.00
38267;BME280;24063;51.794;19.578;2022-12-07T05:39:36;97727.20;;;-0.03;100.00
38267;BME280;24063;51.794;19.578;2022-12-07T05:40:42;97729.02;;;-0.03;100.00
38267;BME280;24063;51.794;19.578;2022-12-07T05:41:43;97726.98;;;-0.02;100.00
38267;BME280;24063;51.794;19.578;2022-12-07T05:43:03;97727.58;;;-0.01;100.00
38267;BME280;24063;51.794;19.578;2022-12-07T05:44:06;97728.60;;;-0.00;100.00
38267;BME280;24063;51.794;19.578;2022-12-07T05:45:09;97726.22;;;0.00;100.00
38267;BME280;24063;51.794;19.578;2022-12-07T05:46:11;97728.73;;;-0.02;100.00
38267;BME280;24063;51.794;19.578;2022-12-07T05:47:14;97727.88;;;-0.02;100.00
38267;BME280;24063;51.794;19.578;2022-12-07T05:48:16;97726.82;;;-0.02;100.00
38267;BME280;24063;51.794;19.578;2022-12-07T05:49:18;97727.15;;;-0.03;100.00
38267;BME280;24063;51.794;19.578;2022-12-07T05:50:20;97731.15;;;-0.03;100.00
38267;BME280;24063;51.794;19.578;2022-12-07T05:51:34;97729.85;;;-0.03;100.00
38267;BME280;24063;51.794;19.578;2022-12-07T05:52:36;97732.20;;;-0.03;100.00
38267;BME280;24063;51.794;19.578;2022-12-07T05:53:37;97730.54;;;-0.02;100.00
38267;BME280;24063;51.794;19.578;2022-12-07T05:54:39;97729.02;;;-0.01;100.00
38267;BME280;24063;51.794;19.578;2022-12-07T05:55:41;97728.89;;;0.00;100.00
38267;BME280;24063;51.794;19.578;2022-12-07T05:56:43;97731.01;;;-0.00;100.00
38267;BME280;24063;51.794;19.578;2022-12-07T05:57:45;97727.12;;;-0.00;100.00
38267;BME280;24063;51.794;19.578;2022-12-07T05:59:08;97732.80;;;-0.00;100.00
38267;BME280;24063;51.794;19.578;2022-12-07T06:00:25;97733.05;;;-0.01;100.00
38267;BME280;24063;51.794;19.578;2022-12-07T06:01:27;97731.80;;;-0.01;100.00
38267;BME280;24063;51.794;19.578;2022-12-07T06:02:29;97734.97;;;-0.01;100.00
38267;BME280;24063;51.794;19.578;2022-12-07T06:03:31;97735.08;;;-0.01;100.00
38267;BME280;24063;51.794;19.578;2022-12-07T06:04:39;97733.15;;;-0.02;100.00
38267;BME280;24063;51.794;19.578;2022-12-07T06:05:42;97733.90;;;-0.01;100.00
38267;BME280;24063;51.794;19.578;2022-12-07T06:06:44;97731.90;;;-0.00;100.00
38267;BME280;24063;51.794;19.578;2022-12-07T06:07:46;97734.55;;;-0.00;100.00